createdAt,value
2023-03-24T00:02:19.769Z,99584.81
2023-03-24T00:02:40.276Z,99436.78
2023-03-24T00:04:50.050Z,99576.81
2023-03-24T00:07:21.090Z,99590.13
2023-03-24T00:07:55.424Z,99433.44
2023-03-24T00:09:50.556Z,99588.69
2023-03-24T00:12:20.879Z,99572.72
2023-03-24T00:13:10.974Z,99438.25
2023-03-24T00:14:51.231Z,99581.25
2023-03-24T00:17:21.054Z,99577.88
2023-03-24T00:18:26.279Z,99422.88
2023-03-24T00:19:51.302Z,99565.97
2023-03-24T00:22:20.704Z,99564.53
2023-03-24T00:23:41.152Z,99419.34
2023-03-24T00:24:49.806Z,99561.88
2023-03-24T00:27:20.171Z,99549.13
2023-03-24T00:28:56.170Z,99397.13
2023-03-24T00:29:50.936Z,99538.69
2023-03-24T00:32:20.805Z,99542.91
2023-03-24T00:34:11.242Z,99396.56
2023-03-24T00:34:50.211Z,99526.06
2023-03-24T00:37:20.206Z,99522.88
2023-03-24T00:39:26.187Z,99388.03
2023-03-24T00:39:50.603Z,99530.88
2023-03-24T00:42:20.516Z,99518.78
2023-03-24T00:44:41.273Z,99382.50
2023-03-24T00:44:50.421Z,99529.44
2023-03-24T00:47:20.331Z,99508.09
2023-03-24T00:49:49.741Z,99508.09
2023-03-24T00:49:56.540Z,99379.50
2023-03-24T00:52:19.626Z,99513.44
2023-03-24T00:54:49.113Z,99498.72
2023-03-24T00:55:12.170Z,99353.59
2023-03-24T00:57:18.477Z,99506.00
2023-03-24T00:59:48.376Z,99504.03
2023-03-24T01:00:27.324Z,99348.63
2023-03-24T01:02:17.818Z,99505.28
2023-03-24T01:04:47.304Z,99494.63
2023-03-24T01:05:43.572Z,99347.84
2023-03-24T01:07:16.249Z,99482.56
2023-03-24T01:09:46.343Z,99489.28
2023-03-24T01:10:59.230Z,99342.09
2023-03-24T01:12:16.626Z,99489.28
2023-03-24T01:14:47.188Z,99478.47
2023-03-24T01:16:14.261Z,99330.25
2023-03-24T01:17:16.136Z,99470.47
2023-03-24T01:19:45.094Z,99465.88
2023-03-24T01:21:28.944Z,99326.16
2023-03-24T01:22:14.024Z,99472.59
2023-03-24T01:24:44.822Z,99459.66
2023-03-24T01:26:44.265Z,99327.47
2023-03-24T01:27:14.698Z,99466.59
2023-03-24T01:29:44.968Z,99455.22
2023-03-24T01:31:59.243Z,99319.13
2023-03-24T01:32:14.858Z,99454.50
2023-03-24T01:34:45.297Z,99457.16
2023-03-24T01:37:14.252Z,99308.19
2023-03-24T01:37:15.140Z,99453.81
2023-03-24T01:39:45.032Z,99453.81
2023-03-24T01:42:15.151Z,99436.38
2023-03-24T01:42:29.201Z,99289.28
2023-03-24T01:44:44.057Z,99438.50
2023-03-24T01:47:13.934Z,99443.84
2023-03-24T01:47:44.223Z,99299.66
2023-03-24T01:49:43.503Z,99439.22
2023-03-24T01:52:11.658Z,99433.88
2023-03-24T01:52:59.185Z,99288.56
2023-03-24T01:54:39.998Z,99422.50
2023-03-24T01:57:12.149Z,99422.50
2023-03-24T01:58:14.197Z,99290.25
2023-03-24T01:59:43.652Z,99422.50
2023-03-24T02:02:22.264Z,99422.66
2023-03-24T02:03:39.553Z,99267.25
2023-03-24T02:04:55.384Z,99423.22
2023-03-24T02:07:27.185Z,99406.53
2023-03-24T02:08:55.218Z,99267.81
2023-03-24T02:09:56.791Z,99405.84
2023-03-24T02:12:25.179Z,99415.78
2023-03-24T02:14:11.213Z,99261.50
2023-03-24T02:14:55.399Z,99400.50
2023-03-24T02:17:23.174Z,99399.78
2023-03-24T02:19:28.218Z,99253.91
2023-03-24T02:19:52.438Z,99399.78
2023-03-24T02:22:22.840Z,99391.09
2023-03-24T02:24:43.197Z,99244.84
2023-03-24T02:24:53.401Z,99394.47
2023-03-24T02:27:22.844Z,99397.69
2023-03-24T02:29:52.800Z,99387.69
2023-03-24T02:29:57.963Z,99242.81
2023-03-24T02:32:22.746Z,99391.66
2023-03-24T02:34:52.578Z,99395.69
2023-03-24T02:35:14.813Z,99243.34
2023-03-24T02:37:22.497Z,99399.06
2023-03-24T02:39:52.312Z,99397.69
2023-03-24T02:40:30.215Z,99255.03
2023-03-24T02:42:22.180Z,99387.69
2023-03-24T02:44:54.604Z,99393.03
2023-03-24T02:45:47.533Z,99248.75
2023-03-24T02:47:24.845Z,99398.38
2023-03-24T02:49:53.919Z,99398.38
2023-03-24T02:51:03.529Z,99254.31
2023-03-24T02:52:22.886Z,99419.69
2023-03-24T02:54:53.913Z,99441.00
2023-03-24T02:56:19.183Z,99350.81
2023-03-24T02:57:23.826Z,99490.41
2023-03-24T03:00:13.190Z,99472.59
2023-03-24T03:01:40.206Z,99328.75
2023-03-24T03:03:05.856Z,99477.25
2023-03-24T03:05:34.266Z,99477.25
2023-03-24T03:07:07.176Z,99340.44
2023-03-24T03:08:03.894Z,99467.97
2023-03-24T03:10:32.235Z,99474.72
2023-03-24T03:12:22.247Z,99341.00
2023-03-24T03:13:02.180Z,99486.78
2023-03-24T03:15:34.789Z,99496.22
2023-03-24T03:17:37.213Z,99361.72
2023-03-24T03:18:04.550Z,99500.25
2023-03-24T03:20:32.492Z,99501.69
2023-03-24T03:22:52.530Z,99370.06
2023-03-24T03:23:01.858Z,99503.09
2023-03-24T03:25:31.736Z,99517.69
2023-03-24T03:28:01.745Z,99524.41
2023-03-24T03:28:08.514Z,99379.69
2023-03-24T03:30:31.196Z,99531.19
2023-03-24T03:33:00.105Z,99536.50
2023-03-24T03:33:23.954Z,99383.75
2023-03-24T03:35:29.513Z,99536.50
2023-03-24T03:37:58.498Z,99544.50
2023-03-24T03:38:39.521Z,99399.13
2023-03-24T03:40:28.065Z,99532.56
2023-03-24T03:43:04.478Z,99532.56
2023-03-24T03:43:56.184Z,99390.22
2023-03-24T03:45:32.840Z,99539.31
2023-03-24T03:48:02.450Z,99548.03
2023-03-24T03:49:11.247Z,99401.19
2023-03-24T03:50:31.512Z,99557.97
2023-03-24T03:53:06.420Z,99571.31
2023-03-24T03:54:26.238Z,99432.47
2023-03-24T03:55:36.435Z,99575.91
2023-03-24T03:58:06.943Z,99587.28
2023-03-24T03:59:41.240Z,99446.56
2023-03-24T04:00:49.222Z,99597.97
2023-03-24T04:03:39.145Z,99591.19
2023-03-24T04:05:05.776Z,99447.88
2023-03-24T04:06:09.382Z,99607.19
2023-03-24T04:08:39.162Z,99601.19
2023-03-24T04:10:26.239Z,99468.81
2023-03-24T04:11:17.419Z,99612.53
2023-03-24T04:14:06.298Z,99605.25
2023-03-24T04:15:41.262Z,99477.88
2023-03-24T04:16:44.703Z,99610.81
2023-03-24T04:19:24.404Z,99616.47
2023-03-24T04:21:12.220Z,99477.13
2023-03-24T04:21:54.348Z,99625.19
2023-03-24T04:24:23.879Z,99637.09
2023-03-24T04:26:27.315Z,99481.94
2023-03-24T04:26:54.713Z,99625.69
2023-03-24T04:29:26.274Z,99641.69
2023-03-24T04:31:42.319Z,99504.94
2023-03-24T04:31:56.343Z,99647.03
2023-03-24T04:34:24.675Z,99660.34
2023-03-24T04:36:54.653Z,99666.94
2023-03-24T04:36:57.235Z,99514.00
2023-03-24T04:39:28.379Z,99669.59
2023-03-24T04:42:01.639Z,99658.78
2023-03-24T04:42:32.208Z,99521.22
2023-03-24T04:44:31.692Z,99664.81
2023-03-24T04:47:19.436Z,99666.78
2023-03-24T04:47:47.364Z,99542.91
2023-03-24T04:50:01.861Z,99664.13
2023-03-24T04:52:33.523Z,99673.34
2023-03-24T04:53:12.229Z,99527.72
2023-03-24T04:55:04.178Z,99668.03
2023-03-24T04:57:33.987Z,99670.00
2023-03-24T04:58:27.214Z,99534.81
2023-03-24T05:00:06.339Z,99683.31
2023-03-24T05:02:36.654Z,99692.94
2023-03-24T05:03:42.195Z,99548.88
2023-03-24T05:05:13.068Z,99687.94
2023-03-24T05:07:47.086Z,99691.84
2023-03-24T05:08:57.551Z,99548.88
2023-03-24T05:10:16.808Z,99690.47
2023-03-24T05:12:51.111Z,99698.44
2023-03-24T05:14:15.518Z,99570.56
2023-03-24T05:15:20.687Z,99688.47
2023-03-24T05:17:53.728Z,99701.13
2023-03-24T05:19:31.194Z,99571.91
2023-03-24T05:20:25.620Z,99705.00
2023-03-24T05:22:56.923Z,99711.06
2023-03-24T05:24:46.205Z,99570.25
2023-03-24T05:25:26.878Z,99708.22
2023-03-24T05:27:58.092Z,99710.34
2023-03-24T05:30:02.015Z,99580.63
2023-03-24T05:30:27.869Z,99721.00
2023-03-24T05:33:05.049Z,99730.25
2023-03-24T05:35:18.313Z,99583.94
2023-03-24T05:35:35.537Z,99723.50
2023-03-24T05:38:04.582Z,99737.00
2023-03-24T05:40:34.329Z,99602.63
2023-03-24T05:40:35.320Z,99738.44
2023-03-24T05:43:25.160Z,99743.19
2023-03-24T05:45:53.276Z,99608.56
2023-03-24T05:46:07.239Z,99755.97
2023-03-24T05:48:38.193Z,99755.44
2023-03-24T05:51:11.981Z,99618.75
2023-03-24T05:51:17.345Z,99760.78
2023-03-24T05:53:52.411Z,99768.22
2023-03-24T05:56:31.124Z,99766.97
2023-03-24T05:56:32.259Z,99619.09
2023-03-24T05:59:09.898Z,99771.06
2023-03-24T06:01:57.444Z,99771.22
2023-03-24T06:02:06.526Z,99622.97
2023-03-24T06:04:33.016Z,99777.97
2023-03-24T06:07:08.165Z,99771.41
2023-03-24T06:07:44.965Z,99643.72
2023-03-24T06:09:40.960Z,99780.78
2023-03-24T06:12:12.320Z,99779.56
2023-03-24T06:13:01.200Z,99634.25
2023-03-24T06:14:50.919Z,99789.00
2023-03-24T06:17:20.768Z,99789.16
2023-03-24T06:18:17.209Z,99644.81
2023-03-24T06:19:52.936Z,99784.34
2023-03-24T06:22:24.806Z,99785.22
2023-03-24T06:23:32.213Z,99632.75
2023-03-24T06:24:55.074Z,99790.56
2023-03-24T06:27:25.031Z,99784.00
2023-03-24T06:28:52.194Z,99638.09
2023-03-24T06:29:55.368Z,99790.88
2023-03-24T06:32:24.924Z,99799.06
2023-03-24T06:34:11.260Z,99649.22
2023-03-24T06:34:54.413Z,99797.84
2023-03-24T06:37:56.252Z,99802.59
2023-03-24T06:39:36.019Z,99649.00
2023-03-24T06:40:26.731Z,99795.81
2023-03-24T06:42:59.245Z,99800.50
2023-03-24T06:44:55.210Z,99658.66
2023-03-24T06:45:29.488Z,99812.53
2023-03-24T06:48:00.078Z,99815.38
2023-03-24T06:50:10.069Z,99670.31
2023-03-24T06:50:30.463Z,99815.38
2023-03-24T06:53:02.295Z,99815.38
2023-03-24T06:55:25.551Z,99676.38
2023-03-24T06:55:33.519Z,99816.81
2023-03-24T06:58:04.155Z,99822.16
2023-03-24T07:00:36.575Z,99824.97
2023-03-24T07:00:42.025Z,99673.59
2023-03-24T07:03:25.187Z,99842.38
2023-03-24T07:06:13.997Z,99839.88
2023-03-24T07:06:29.242Z,99693.63
2023-03-24T07:08:43.985Z,99840.06
2023-03-24T07:11:14.483Z,99841.63
2023-03-24T07:11:52.631Z,99713.59
2023-03-24T07:13:53.225Z,99841.97
2023-03-24T07:16:21.722Z,99850.16
2023-03-24T07:17:08.570Z,99698.97
2023-03-24T07:19:00.897Z,99850.47
2023-03-24T07:21:35.417Z,99858.63
2023-03-24T07:22:44.653Z,99703.59
2023-03-24T07:24:03.755Z,99858.81
2023-03-24T07:26:57.400Z,99857.59
2023-03-24T07:28:19.609Z,99717.50
2023-03-24T07:29:25.847Z,99862.69
2023-03-24T07:32:17.679Z,99863.56
2023-03-24T07:33:37.266Z,99710.41
2023-03-24T07:34:47.933Z,99853.56
2023-03-24T07:37:16.773Z,99860.94
2023-03-24T07:38:52.262Z,99712.44
2023-03-24T07:39:45.162Z,99863.94
2023-03-24T07:42:15.151Z,99868.34
2023-03-24T07:44:14.271Z,99718.56
2023-03-24T07:45:05.366Z,99846.25
2023-03-24T07:47:34.822Z,99860.41
2023-03-24T07:49:33.273Z,99705.38
2023-03-24T07:50:05.114Z,99860.97
2023-03-24T07:52:34.543Z,99861.94
2023-03-24T07:54:51.591Z,99715.78
2023-03-24T07:55:03.535Z,99859.38
2023-03-24T07:57:54.975Z,99857.38
2023-03-24T08:00:22.301Z,99729.47
2023-03-24T08:00:26.425Z,99881.84
2023-03-24T08:03:16.475Z,99874.28
2023-03-24T08:05:49.709Z,99723.72
2023-03-24T08:06:08.136Z,99871.91
2023-03-24T08:08:46.063Z,99876.00
2023-03-24T08:11:31.563Z,99730.53
2023-03-24T08:11:35.394Z,99881.97
2023-03-24T08:14:26.187Z,99891.88
2023-03-24T08:17:07.089Z,99738.88
2023-03-24T08:17:16.143Z,99896.81
2023-03-24T08:20:06.076Z,99901.47
2023-03-24T08:22:42.620Z,99752.03
2023-03-24T08:22:55.564Z,99891.88
2023-03-24T08:25:44.439Z,99895.81
2023-03-24T08:28:18.533Z,99751.28
2023-03-24T08:28:33.891Z,99897.97
2023-03-24T08:31:22.790Z,99898.88
2023-03-24T08:33:54.264Z,99758.09
2023-03-24T08:34:12.633Z,99886.75
2023-03-24T08:37:02.433Z,99913.81
2023-03-24T08:39:29.319Z,99770.53
2023-03-24T08:39:51.555Z,99918.25
2023-03-24T08:42:39.304Z,99923.38
2023-03-24T08:45:04.247Z,99777.56
2023-03-24T08:45:28.128Z,99932.00
2023-03-24T08:48:18.776Z,99931.28
2023-03-24T08:50:39.258Z,99771.25
2023-03-24T08:51:08.077Z,99932.13
2023-03-24T08:53:57.960Z,99929.50
2023-03-24T08:55:55.271Z,99798.31
2023-03-24T08:56:27.494Z,99934.44
2023-03-24T08:59:14.182Z,99938.50
2023-03-24T09:01:10.289Z,99799.03
2023-03-24T09:01:43.104Z,99938.09
2023-03-24T09:04:12.731Z,99944.00
2023-03-24T09:06:25.249Z,99796.25
2023-03-24T09:06:42.788Z,99947.41
2023-03-24T09:09:16.106Z,99947.41
2023-03-24T09:11:39.979Z,99796.81
2023-03-24T09:11:45.660Z,99949.06
2023-03-24T09:14:15.969Z,99950.06
2023-03-24T09:16:49.029Z,99954.72
2023-03-24T09:16:55.203Z,99810.69
2023-03-24T09:19:18.880Z,99942.16
2023-03-24T09:21:49.211Z,99952.03
2023-03-24T09:22:10.314Z,99798.09
2023-03-24T09:24:19.078Z,99952.75
2023-03-24T09:26:49.396Z,99959.22
2023-03-24T09:27:25.303Z,99814.00
2023-03-24T09:29:19.802Z,99961.94
2023-03-24T09:31:49.892Z,99969.44
2023-03-24T09:32:40.427Z,99821.81
2023-03-24T09:34:19.881Z,99964.38
2023-03-24T09:36:55.220Z,99961.47
2023-03-24T09:37:56.210Z,99814.75
2023-03-24T09:39:25.536Z,99976.63
2023-03-24T09:41:55.883Z,99973.94
2023-03-24T09:43:11.187Z,99827.13
2023-03-24T09:44:27.161Z,99976.47
2023-03-24T09:46:57.301Z,99982.16
2023-03-24T09:48:26.210Z,99826.38
2023-03-24T09:49:25.992Z,99981.94
2023-03-24T09:51:56.353Z,99967.84
2023-03-24T09:53:41.233Z,99818.03
2023-03-24T09:54:26.224Z,99974.13
2023-03-24T09:56:55.497Z,99986.34
2023-03-24T09:58:57.290Z,99825.66
2023-03-24T09:59:25.401Z,99973.13
2023-03-24T10:01:54.766Z,99979.59
2023-03-24T10:04:12.393Z,99839.53
2023-03-24T10:04:25.140Z,99979.94
2023-03-24T10:06:55.519Z,99997.78
2023-03-24T10:09:25.533Z,99980.50
2023-03-24T10:09:27.239Z,99829.72
2023-03-24T10:11:53.865Z,99977.22
2023-03-24T10:14:23.234Z,99985.44
2023-03-24T10:14:42.203Z,99836.03
2023-03-24T10:16:53.501Z,99994.81
2023-03-24T10:19:23.389Z,99981.88
2023-03-24T10:20:00.060Z,99836.03
2023-03-24T10:21:52.125Z,99986.59
2023-03-24T10:24:21.006Z,99982.84
2023-03-24T10:25:15.646Z,99829.72
2023-03-24T10:26:52.820Z,99991.59
2023-03-24T10:29:25.878Z,99983.00
2023-03-24T10:30:31.249Z,99836.78
2023-03-24T10:31:56.451Z,99986.91
2023-03-24T10:34:26.893Z,99984.38
2023-03-24T10:35:46.302Z,99839.53
2023-03-24T10:36:58.179Z,99983.78
2023-03-24T10:39:41.903Z,99984.88
2023-03-24T10:41:01.266Z,99839.34
2023-03-24T10:42:12.972Z,99991.78
2023-03-24T10:44:43.264Z,99999.81
2023-03-24T10:46:16.319Z,99828.97
2023-03-24T10:47:13.635Z,99989.69
2023-03-24T10:49:43.504Z,99988.81
2023-03-24T10:51:31.303Z,99838.06
2023-03-24T10:52:12.803Z,99979.41
2023-03-24T10:54:43.205Z,99987.09
2023-03-24T10:56:46.298Z,99829.72
2023-03-24T10:57:13.767Z,99978.78
2023-03-24T10:59:43.118Z,99973.09
2023-03-24T11:02:01.311Z,99822.88
2023-03-24T11:02:11.616Z,99974.97
2023-03-24T11:04:41.257Z,99973.00
2023-03-24T11:07:10.125Z,99979.19
2023-03-24T11:07:16.016Z,99834.00
2023-03-24T11:09:40.196Z,99995.66
2023-03-24T11:12:09.090Z,99998.66
2023-03-24T11:12:31.310Z,99846.56
2023-03-24T11:14:38.523Z,99989.66
2023-03-24T11:17:07.451Z,99997.63
2023-03-24T11:17:46.300Z,99856.94
2023-03-24T11:19:36.361Z,100008.44
2023-03-24T11:22:05.736Z,100016.28
2023-03-24T11:23:01.539Z,99870.81
2023-03-24T11:24:36.042Z,100028.16
2023-03-24T11:27:06.328Z,100033.13
2023-03-24T11:28:17.230Z,99875.13
2023-03-24T11:29:36.627Z,100024.50
2023-03-24T11:32:07.088Z,100021.94
2023-03-24T11:33:35.789Z,99874.34
2023-03-24T11:34:35.976Z,100031.50
2023-03-24T11:37:06.275Z,100026.25
2023-03-24T11:38:52.035Z,99875.88
2023-03-24T11:39:36.128Z,100030.53
2023-03-24T11:42:05.700Z,100028.75
2023-03-24T11:44:07.244Z,99867.53
2023-03-24T11:44:34.582Z,100021.59
2023-03-24T11:47:03.138Z,100027.97
2023-03-24T11:49:22.292Z,99872.34
2023-03-24T11:49:32.478Z,100025.03
2023-03-24T11:52:01.663Z,100012.06
2023-03-24T11:54:32.995Z,100021.94
2023-03-24T11:54:37.270Z,99872.34
2023-03-24T11:57:02.035Z,100023.66
2023-03-24T11:59:32.452Z,100029.41
2023-03-24T11:59:52.353Z,99879.91
2023-03-24T12:02:02.799Z,100039.81
2023-03-24T12:04:32.334Z,100050.38
2023-03-24T12:05:07.555Z,99903.66
2023-03-24T12:07:01.284Z,100061.78
2023-03-24T12:09:31.212Z,100070.38
2023-03-24T12:10:23.306Z,99916.78
2023-03-24T12:12:00.699Z,100064.41
2023-03-24T12:14:38.602Z,100049.16
2023-03-24T12:15:38.300Z,99898.09
2023-03-24T12:17:08.878Z,100042.78
2023-03-24T12:19:39.140Z,100043.19
2023-03-24T12:20:53.265Z,99890.50
2023-03-24T12:22:09.484Z,100029.66
2023-03-24T12:24:39.916Z,100032.16
2023-03-24T12:26:08.264Z,99880.69
2023-03-24T12:27:09.525Z,100041.75
2023-03-24T12:29:38.189Z,100033.91
2023-03-24T12:31:23.314Z,99887.72
2023-03-24T12:32:08.151Z,100029.53
2023-03-24T12:34:36.865Z,100027.34
2023-03-24T12:36:38.297Z,99884.22
2023-03-24T12:37:07.167Z,100029.94
2023-03-24T12:39:37.252Z,100028.72
2023-03-24T12:41:53.642Z,99872.13
2023-03-24T12:42:06.057Z,100030.56
2023-03-24T12:44:36.415Z,100029.25
2023-03-24T12:47:06.676Z,100015.91
2023-03-24T12:47:09.006Z,99873.84
2023-03-24T12:49:36.922Z,100006.41
2023-03-24T12:52:07.195Z,100009.66
2023-03-24T12:52:23.988Z,99858.47
2023-03-24T12:54:37.555Z,100012.03
2023-03-24T12:57:07.994Z,100009.50
2023-03-24T12:57:39.261Z,99859.22
2023-03-24T12:59:38.408Z,100014.75
2023-03-24T13:02:08.519Z,100013.97
2023-03-24T13:02:54.329Z,99852.13
2023-03-24T13:04:37.239Z,100009.50
2023-03-24T13:07:07.643Z,100005.63
2023-03-24T13:08:09.281Z,99843.78
2023-03-24T13:09:40.087Z,99996.47
2023-03-24T13:12:08.206Z,99995.41
2023-03-24T13:13:24.259Z,99846.56
2023-03-24T13:14:37.015Z,99990.03
2023-03-24T13:17:07.269Z,99990.19
2023-03-24T13:18:39.319Z,99840.50
2023-03-24T13:19:36.934Z,99982.41
2023-03-24T13:22:05.411Z,99993.72
2023-03-24T13:23:54.253Z,99845.31
2023-03-24T13:24:37.777Z,99988.63
2023-03-24T13:27:08.070Z,99991.44
2023-03-24T13:29:09.225Z,99842.00
2023-03-24T13:29:47.916Z,99985.84
2023-03-24T13:32:19.442Z,99984.47
2023-03-24T13:34:24.566Z,99829.41
2023-03-24T13:34:49.405Z,99977.91
2023-03-24T13:37:18.172Z,99979.56
2023-03-24T13:39:40.687Z,99825.34
2023-03-24T13:39:48.585Z,99980.38
2023-03-24T13:42:18.814Z,99988.50
2023-03-24T13:44:49.243Z,99986.59
2023-03-24T13:44:56.552Z,99827.38
2023-03-24T13:47:18.603Z,99985.13
2023-03-24T13:49:48.441Z,99975.59
2023-03-24T13:50:12.267Z,99836.44
2023-03-24T13:52:18.759Z,99993.59
2023-03-24T13:54:48.856Z,99998.22
2023-03-24T13:55:27.079Z,99849.59
2023-03-24T13:57:17.236Z,99984.66
2023-03-24T13:59:45.953Z,99984.50
2023-03-24T14:00:42.300Z,99849.59
2023-03-24T14:02:15.971Z,100001.00
2023-03-24T14:04:44.773Z,100003.97
2023-03-24T14:05:57.235Z,99850.88
2023-03-24T14:07:14.716Z,100003.28
2023-03-24T14:09:43.495Z,100016.66
2023-03-24T14:11:12.233Z,99861.97
2023-03-24T14:12:12.584Z,100013.94
2023-03-24T14:14:41.392Z,100016.56
2023-03-24T14:16:27.393Z,99865.50
2023-03-24T14:17:11.786Z,100011.03
2023-03-24T14:19:42.941Z,100020.16
2023-03-24T14:21:42.304Z,99885.72
2023-03-24T14:22:13.001Z,100032.22
2023-03-24T14:24:41.733Z,100030.06
2023-03-24T14:26:57.283Z,99891.25
2023-03-24T14:27:12.104Z,100033.38
2023-03-24T14:29:41.318Z,100026.00
2023-03-24T14:32:19.687Z,100005.59
2023-03-24T14:32:19.846Z,99865.50
2023-03-24T14:34:50.967Z,100023.28
2023-03-24T14:37:21.291Z,99996.53
2023-03-24T14:37:36.592Z,99844.56
2023-03-24T14:39:51.608Z,99997.97
2023-03-24T14:42:21.997Z,99989.72
2023-03-24T14:42:52.271Z,99835.47
2023-03-24T14:44:52.460Z,99982.16
2023-03-24T14:47:21.396Z,99982.56
2023-03-24T14:48:07.309Z,99835.47
2023-03-24T14:49:50.731Z,99976.34
2023-03-24T14:52:21.150Z,99972.53
2023-03-24T14:53:22.269Z,99819.16
2023-03-24T14:54:50.668Z,99973.22
2023-03-24T14:57:19.351Z,99981.31
2023-03-24T14:58:37.250Z,99832.69
2023-03-24T14:59:47.621Z,99983.25
2023-03-24T15:02:17.988Z,99989.13
2023-03-24T15:03:52.575Z,99833.47
2023-03-24T15:04:48.316Z,99980.78
2023-03-24T15:07:18.413Z,99982.25
2023-03-24T15:09:08.255Z,99832.69
2023-03-24T15:09:47.329Z,99978.38
2023-03-24T15:12:17.124Z,99980.09
2023-03-24T15:14:23.306Z,99836.78
2023-03-24T15:14:46.394Z,99980.94
2023-03-24T15:17:16.685Z,99981.56
2023-03-24T15:19:38.307Z,99822.88
2023-03-24T15:19:46.941Z,99971.41
2023-03-24T15:22:16.766Z,99980.16
2023-03-24T15:24:46.179Z,99972.84
2023-03-24T15:24:53.423Z,99828.44
2023-03-24T15:27:16.202Z,99970.84
2023-03-24T15:29:44.562Z,99971.00
2023-03-24T15:30:09.281Z,99821.56
2023-03-24T15:32:12.841Z,99966.63
2023-03-24T15:34:41.678Z,99961.50
2023-03-24T15:35:24.115Z,99810.47
2023-03-24T15:37:11.084Z,99955.00
2023-03-24T15:39:41.085Z,99951.28
2023-03-24T15:40:39.325Z,99806.22
2023-03-24T15:42:09.898Z,99953.97
2023-03-24T15:44:40.034Z,99944.78
2023-03-24T15:46:04.738Z,99790.28
2023-03-24T15:47:10.351Z,99948.63
2023-03-24T15:49:40.609Z,99950.03
2023-03-24T15:51:24.302Z,99790.28
2023-03-24T15:52:10.819Z,99944.38
2023-03-24T15:54:41.031Z,99944.50
2023-03-24T15:56:39.347Z,99786.78
2023-03-24T15:57:11.314Z,99933.22
2023-03-24T15:59:40.870Z,99937.59
2023-03-24T16:01:54.332Z,99778.22
2023-03-24T16:02:09.604Z,99934.59
2023-03-24T16:04:39.195Z,99935.91
2023-03-24T16:07:08.032Z,99945.03
2023-03-24T16:07:09.249Z,99786.03
2023-03-24T16:09:38.387Z,99934.84
2023-03-24T16:12:08.714Z,99933.00
2023-03-24T16:12:24.293Z,99775.66
2023-03-24T16:14:38.647Z,99935.38
2023-03-24T16:17:07.427Z,99927.34
2023-03-24T16:17:39.323Z,99770.09
2023-03-24T16:19:37.463Z,99926.50
2023-03-24T16:22:07.854Z,99920.31
2023-03-24T16:22:54.648Z,99770.81
2023-03-24T16:24:38.265Z,99926.91
2023-03-24T16:27:08.668Z,99926.47
2023-03-24T16:28:10.345Z,99770.81
2023-03-24T16:29:39.134Z,99919.25
2023-03-24T16:32:08.171Z,99910.06
2023-03-24T16:33:25.614Z,99765.28
2023-03-24T16:34:37.400Z,99911.75
2023-03-24T16:37:07.341Z,99916.63
2023-03-24T16:38:41.282Z,99764.56
2023-03-24T16:39:36.922Z,99921.69
2023-03-24T16:42:07.452Z,99920.09
2023-03-24T16:43:56.298Z,99776.38
2023-03-24T16:44:36.890Z,99926.59
2023-03-24T16:47:06.669Z,99925.00
2023-03-24T16:49:12.312Z,99760.81
2023-03-24T16:49:36.093Z,99923.41
2023-03-24T16:52:06.609Z,99917.94
2023-03-24T16:54:27.279Z,99771.56
2023-03-24T16:54:35.700Z,99920.44
2023-03-24T16:57:04.827Z,99931.00
2023-03-24T16:59:33.680Z,99924.09
2023-03-24T16:59:42.310Z,99772.34
2023-03-24T17:02:04.005Z,99917.31
2023-03-24T17:04:33.953Z,99925.19
2023-03-24T17:04:57.087Z,99771.56
2023-03-24T17:07:03.440Z,99909.16
2023-03-24T17:09:33.818Z,99923.78
2023-03-24T17:10:12.087Z,99754.16
2023-03-24T17:12:04.077Z,99920.25
2023-03-24T17:14:34.412Z,99921.31
2023-03-24T17:15:27.315Z,99774.34
2023-03-24T17:17:07.858Z,99922.44
2023-03-24T17:19:37.404Z,99934.97
2023-03-24T17:20:42.319Z,99773.59
2023-03-24T17:22:07.715Z,99931.97
2023-03-24T17:24:37.548Z,99927.91
2023-03-24T17:25:57.053Z,99774.34
2023-03-24T17:27:07.853Z,99925.06
2023-03-24T17:29:38.224Z,99924.88
2023-03-24T17:31:12.292Z,99773.84
2023-03-24T17:32:08.078Z,99920.81
2023-03-24T17:34:37.485Z,99923.34
2023-03-24T17:36:27.010Z,99761.56
2023-03-24T17:37:07.058Z,99914.47
2023-03-24T17:39:35.678Z,99920.22
2023-03-24T17:41:42.289Z,99770.81
2023-03-24T17:42:05.979Z,99918.78
2023-03-24T17:44:35.921Z,99925.25
2023-03-24T17:46:57.084Z,99760.47
2023-03-24T17:47:04.767Z,99921.69
2023-03-24T17:49:34.099Z,99914.22
2023-03-24T17:52:04.528Z,99916.75
2023-03-24T17:52:12.242Z,99763.25
2023-03-24T17:54:34.982Z,99912.50
2023-03-24T17:57:05.382Z,99913.59
2023-03-24T17:57:27.261Z,99767.53
2023-03-24T17:59:35.829Z,99906.81
2023-03-24T18:02:06.152Z,99896.13
2023-03-24T18:02:42.657Z,99746.56
2023-03-24T18:04:36.691Z,99902.75
2023-03-24T18:07:05.733Z,99900.63
2023-03-24T18:07:58.316Z,99755.69
2023-03-24T18:09:36.187Z,99904.69
2023-03-24T18:12:06.571Z,99906.50
2023-03-24T18:13:13.349Z,99750.13
2023-03-24T18:14:37.017Z,99907.63
2023-03-24T18:17:06.491Z,99900.84
2023-03-24T18:18:28.615Z,99760.47
2023-03-24T18:19:36.469Z,99907.28
2023-03-24T18:22:05.835Z,99907.28
2023-03-24T18:23:44.295Z,99758.47
2023-03-24T18:24:36.315Z,99906.44
2023-03-24T18:27:06.659Z,99900.22
2023-03-24T18:28:59.296Z,99743.78
2023-03-24T18:29:36.945Z,99902.75
2023-03-24T18:32:07.395Z,99909.31
2023-03-24T18:34:14.025Z,99752.13
2023-03-24T18:34:37.279Z,99898.47
2023-03-24T18:37:06.646Z,99899.03
2023-03-24T18:39:29.316Z,99754.16
2023-03-24T18:39:36.953Z,99896.78
2023-03-24T18:42:06.793Z,99900.69
2023-03-24T18:44:36.170Z,99895.88
2023-03-24T18:44:44.034Z,99737.50
2023-03-24T18:47:06.043Z,99891.09
2023-03-24T18:49:34.502Z,99901.78
2023-03-24T18:49:59.294Z,99743.78
2023-03-24T18:52:03.416Z,99897.69
2023-03-24T18:54:33.730Z,99897.50
2023-03-24T18:55:14.067Z,99744.56
2023-03-24T18:57:04.047Z,99902.72
2023-03-24T18:59:34.337Z,99903.97
2023-03-24T19:00:30.597Z,99750.66
2023-03-24T19:02:04.793Z,99905.06
2023-03-24T19:04:34.222Z,99912.22
2023-03-24T19:05:46.343Z,99759.00
2023-03-24T19:07:03.747Z,99908.66
2023-03-24T19:09:32.545Z,99905.81
2023-03-24T19:11:01.008Z,99759.72
2023-03-24T19:12:02.999Z,99908.31
2023-03-24T19:14:32.422Z,99910.84
2023-03-24T19:16:16.691Z,99758.25
2023-03-24T19:17:02.249Z,99912.66
2023-03-24T19:19:32.487Z,99915.84
2023-03-24T19:21:32.259Z,99759.00
2023-03-24T19:22:13.863Z,99902.34
2023-03-24T19:24:53.930Z,99903.78
2023-03-24T19:26:47.627Z,99749.34
2023-03-24T19:27:22.837Z,99907.69
2023-03-24T19:29:52.266Z,99906.25
2023-03-24T19:32:03.332Z,99749.78
2023-03-24T19:32:23.310Z,99908.06
2023-03-24T19:34:52.871Z,99896.53
2023-03-24T19:37:18.282Z,99750.59
2023-03-24T19:37:23.238Z,99901.38
2023-03-24T19:39:53.137Z,99905.47
2023-03-24T19:42:23.009Z,99910.63
2023-03-24T19:42:33.482Z,99759.34
2023-03-24T19:44:53.323Z,99913.16
2023-03-24T19:47:23.194Z,99908.91
2023-03-24T19:47:48.335Z,99754.00
2023-03-24T19:49:53.094Z,99906.03
2023-03-24T19:52:22.418Z,99903.94
2023-03-24T19:53:03.351Z,99751.41
2023-03-24T19:54:52.342Z,99903.06
2023-03-24T19:57:21.873Z,99898.97
2023-03-24T19:58:18.338Z,99755.69
2023-03-24T19:59:50.799Z,99895.81
2023-03-24T20:02:20.454Z,99898.63
2023-03-24T20:03:33.108Z,99755.16